KBRY/BRY METAR and TAF weather

Enter ICAO airport designator
Station Type Date Time Source
KBRY METAR 2018/04/20 08:55 UTC NOAA

KBRY 200855Z AUTO 00000KT 10SM CLR 02/M03 A3038 RMK AO1


Station Type Date Time Source
KBRY Decoded METAR 2018/04/20 08:55 UTC NOAA

Station name not available
Apr 20, 2018 - 04:55 AM EDT / 2018.04.20 0855 UTC
Wind: Calm:0
Visibility: 10 mile(s):0
Sky conditions: clear
Temperature: 35 F (2 C)
Dew Point: 26 F (-3 C)
Relative Humidity: 69%
Pressure (altimeter): 30.38 in. Hg (1028 hPa)
ob: KBRY 200855Z AUTO 00000KT 10SM CLR 02/M03 A3038 RMK AO1
cycle: 9

Station Type Date Time Source
KBRY TAF UTC NOAA

Error!


Example: see airport list